Minot Air Force Base Minot US
ICAO: KMIB
IATA: MIB
Category: Medium
Scheduled Services: No

Elevation: 1667 ft
TransAlt. 18000 ft.

Airport Communications:
APP:119.6
ATIS:27.88
CLNC DEL:32.62
DEP:119.6
GND:134
PMSV METRO:34.25
COMD POST:32.1
PTD:37.22
TWR:120.65

KMIB Zoom In..

If you have problems with the map follow the link
https://www.worldairports.se/pages/airport.php?
ICAO=KMIB

Runways:

(A) RW 11 length 13197 ft width 300 ft
ILS 109.90 / hdg 115

(B) RW 29 length 13197 ft width 300 ft
ILS 109.90 / hdg 295

Location; KMIB
Day. 14 / Time. 04.56 Zulu
* Altimeter: 30.09
* Temperature: -22° c. 7.6°f.
* Wind from: 300° Speed 07 kn.
Dewpoint: -25° c.
Visibility: 10 Statute Miles.
Clouds: Clear (automated report).

KMIB 140456Z AUTO 30007KT 10SM CLR M22/M25 A3009 RMK AO2 SLP241 T12231252 $


Wind From 300°
Speed 07 kn.

 
 
jpsmedia worldairports.se 2019   terms of use